createdAt,value
2023-02-12T00:01:29.320Z,102361.91
2023-02-12T00:03:58.520Z,102358.03
2023-02-12T00:06:27.412Z,102354.34
2023-02-12T00:08:57.143Z,102362.78
2023-02-12T00:11:28.526Z,102348.09
2023-02-12T00:13:57.911Z,102351.41
2023-02-12T00:16:29.123Z,102348.22
2023-02-12T00:18:59.172Z,102346.88
2023-02-12T00:21:29.070Z,102355.41
2023-02-12T00:23:57.574Z,102354.00
2023-02-12T00:26:25.532Z,102355.34
2023-02-12T00:28:54.397Z,102360.41
2023-02-12T00:31:25.971Z,102360.88
2023-02-12T00:33:57.492Z,102349.63
2023-02-12T00:36:28.994Z,102347.28
2023-02-12T00:38:57.608Z,102352.38
2023-02-12T00:41:26.552Z,102355.09
2023-02-12T00:43:55.038Z,102351.75
2023-02-12T00:46:23.162Z,102355.50
2023-02-12T00:48:51.460Z,102346.97
2023-02-12T00:51:21.329Z,102349.28
2023-02-12T00:53:49.677Z,102356.19
2023-02-12T00:56:17.723Z,102354.03
2023-02-12T00:58:45.921Z,102350.44
2023-02-12T01:01:14.104Z,102350.88
2023-02-12T01:03:42.374Z,102348.50
2023-02-12T01:06:10.224Z,102354.69
2023-02-12T01:08:38.522Z,102356.53
2023-02-12T01:11:07.000Z,102365.00
2023-02-12T01:13:35.782Z,102357.53
2023-02-12T01:16:14.560Z,102350.88
2023-02-12T01:18:42.988Z,102353.50
2023-02-12T01:21:18.056Z,102347.03
2023-02-12T01:23:47.228Z,102348.13
2023-02-12T01:26:17.039Z,102350.22
2023-02-12T01:28:49.929Z,102345.69
2023-02-12T01:31:21.086Z,102344.69
2023-02-12T01:33:54.693Z,102339.84
2023-02-12T01:36:23.380Z,102328.34
2023-02-12T01:38:52.076Z,102323.16
2023-02-12T01:41:23.862Z,102319.41
2023-02-12T01:44:31.409Z,102322.41
2023-02-12T01:47:05.510Z,102323.38
2023-02-12T01:49:33.920Z,102308.84
2023-02-12T01:52:07.404Z,102310.97
2023-02-12T01:54:36.229Z,102313.31
2023-02-12T01:57:06.912Z,102311.19
2023-02-12T01:59:38.219Z,102310.84
2023-02-12T02:02:06.571Z,102313.75
2023-02-12T02:04:48.650Z,102307.66
2023-02-12T02:07:16.622Z,102304.94
2023-02-12T02:09:45.209Z,102319.25
2023-02-12T02:12:31.729Z,102326.56
2023-02-12T02:15:02.715Z,102315.44
2023-02-12T02:17:39.728Z,102306.50
2023-02-12T02:20:23.308Z,102308.84
2023-02-12T02:23:04.984Z,102304.50
2023-02-12T02:26:03.616Z,102302.22
2023-02-12T02:28:59.026Z,102291.72
2023-02-12T02:31:41.511Z,102291.22
2023-02-12T02:34:34.973Z,102292.38
2023-02-12T02:37:17.122Z,102291.66
2023-02-12T02:40:00.157Z,102278.19
2023-02-12T02:42:56.306Z,102276.72
2023-02-12T02:45:47.844Z,102265.84
2023-02-12T02:48:40.974Z,102264.94
2023-02-12T02:51:14.887Z,102266.94
2023-02-12T02:53:48.735Z,102262.41
2023-02-12T02:56:20.357Z,102263.03
2023-02-12T02:58:59.845Z,102259.28
2023-02-12T03:01:44.192Z,102263.97
2023-02-12T03:04:41.464Z,102258.53
2023-02-12T03:07:24.815Z,102254.13
2023-02-12T03:10:22.404Z,102252.38
2023-02-12T03:12:57.258Z,102257.75
2023-02-12T03:15:42.415Z,102250.13
2023-02-12T03:18:21.516Z,102257.69
2023-02-12T03:20:55.775Z,102263.25
2023-02-12T03:23:28.338Z,102250.72
2023-02-12T03:26:09.910Z,102248.44
2023-02-12T03:28:39.006Z,102242.56
2023-02-12T03:31:36.543Z,102242.28
2023-02-12T03:34:23.158Z,102236.44
2023-02-12T03:37:12.928Z,102235.69
2023-02-12T03:40:02.461Z,102241.41
2023-02-12T03:42:34.213Z,102235.09
2023-02-12T03:45:20.239Z,102231.41
2023-02-12T03:48:00.112Z,102237.25
2023-02-12T03:50:38.930Z,102239.13
2023-02-12T03:53:07.451Z,102235.69
2023-02-12T03:55:40.644Z,102250.16
2023-02-12T03:58:13.227Z,102253.66
2023-02-12T04:00:41.237Z,102257.00
2023-02-12T04:03:10.050Z,102262.69
2023-02-12T04:05:38.054Z,102266.66
2023-02-12T04:08:09.812Z,102270.41
2023-02-12T04:11:02.167Z,102275.31
2023-02-12T04:14:03.399Z,102253.41
2023-02-12T04:16:38.384Z,102267.25
2023-02-12T04:19:10.713Z,102267.13
2023-02-12T04:21:45.074Z,102272.75
2023-02-12T04:24:42.111Z,102264.69
2023-02-12T04:27:20.953Z,102249.09
2023-02-12T04:30:21.704Z,102247.16
2023-02-12T04:32:56.756Z,102265.34
2023-02-12T04:35:35.116Z,102268.41
2023-02-12T04:38:15.407Z,102259.44
2023-02-12T04:40:44.987Z,102262.19
2023-02-12T04:43:12.879Z,102260.66
2023-02-12T04:45:41.548Z,102256.56
2023-02-12T04:48:09.573Z,102254.91
2023-02-12T04:50:43.671Z,102254.44
2023-02-12T04:53:11.616Z,102259.16
2023-02-12T04:55:39.799Z,102250.00
2023-02-12T04:58:07.702Z,102254.06
2023-02-12T05:00:36.212Z,102257.38
2023-02-12T05:03:04.768Z,102262.38
2023-02-12T05:05:32.962Z,102266.63
2023-02-12T05:08:00.927Z,102255.03
2023-02-12T05:10:29.207Z,102252.72
2023-02-12T05:12:57.040Z,102262.09
2023-02-12T05:15:25.566Z,102263.25
2023-02-12T05:17:53.399Z,102259.75
2023-02-12T05:20:21.654Z,102256.81
2023-02-12T05:22:53.489Z,102256.38
2023-02-12T05:25:21.701Z,102252.75
2023-02-12T05:27:49.540Z,102249.91
2023-02-12T05:30:17.872Z,102244.31
2023-02-12T05:32:46.018Z,102241.88
2023-02-12T05:35:14.814Z,102242.09
2023-02-12T05:37:42.688Z,102237.75
2023-02-12T05:40:11.482Z,102249.50
2023-02-12T05:42:39.466Z,102241.28
2023-02-12T05:45:08.006Z,102236.75
2023-02-12T05:47:35.817Z,102239.94
2023-02-12T05:50:04.253Z,102246.38
2023-02-12T05:52:32.093Z,102249.44
2023-02-12T05:55:00.261Z,102242.59
2023-02-12T05:57:28.359Z,102256.16
2023-02-12T05:59:56.693Z,102262.63
2023-02-12T06:02:24.668Z,102262.19
2023-02-12T06:04:52.955Z,102262.59
2023-02-12T06:07:20.812Z,102254.44
2023-02-12T06:09:49.054Z,102259.84
2023-02-12T06:12:17.038Z,102270.03
2023-02-12T06:14:45.264Z,102281.72
2023-02-12T06:17:13.381Z,102282.00
2023-02-12T06:19:41.700Z,102292.91
2023-02-12T06:22:09.509Z,102296.59
2023-02-12T06:24:37.753Z,102305.94
2023-02-12T06:27:05.663Z,102300.44
2023-02-12T06:29:34.008Z,102298.00
2023-02-12T06:32:02.001Z,102303.78
2023-02-12T06:34:30.282Z,102307.31
2023-02-12T06:36:58.222Z,102307.13
2023-02-12T06:39:26.315Z,102324.22
2023-02-12T06:41:54.682Z,102319.69
2023-02-12T06:44:22.861Z,102324.53
2023-02-12T06:46:50.861Z,102326.00
2023-02-12T06:49:19.204Z,102325.75
2023-02-12T06:51:47.062Z,102334.09
2023-02-12T06:54:18.463Z,102338.28
2023-02-12T06:56:46.324Z,102338.03
2023-02-12T06:59:16.813Z,102338.88
2023-02-12T07:01:45.074Z,102331.91
2023-02-12T07:04:13.393Z,102325.41
2023-02-12T07:06:41.499Z,102326.50
2023-02-12T07:09:09.931Z,102323.53
2023-02-12T07:11:38.733Z,102326.28
2023-02-12T07:14:08.071Z,102330.09
2023-02-12T07:16:36.000Z,102337.63
2023-02-12T07:19:04.177Z,102352.31
2023-02-12T07:21:32.343Z,102360.47
2023-02-12T07:24:00.791Z,102360.34
2023-02-12T07:26:29.151Z,102359.72
2023-02-12T07:28:58.988Z,102353.34
2023-02-12T07:31:27.040Z,102359.66
2023-02-12T07:33:57.392Z,102370.91
2023-02-12T07:36:27.824Z,102374.47
2023-02-12T07:38:57.162Z,102384.03
2023-02-12T07:41:28.258Z,102388.66
2023-02-12T07:44:04.024Z,102387.06
2023-02-12T07:46:35.507Z,102382.91
2023-02-12T07:49:05.800Z,102381.78
2023-02-12T07:51:35.682Z,102375.69
2023-02-12T07:54:04.664Z,102380.19
2023-02-12T07:56:35.572Z,102378.00
2023-02-12T07:59:10.376Z,102384.88
2023-02-12T08:01:41.409Z,102395.41
2023-02-12T08:04:15.102Z,102396.94
2023-02-12T08:06:45.467Z,102391.94
2023-02-12T08:09:17.096Z,102384.84
2023-02-12T08:11:45.654Z,102395.44
2023-02-12T08:14:16.694Z,102396.69
2023-02-12T08:16:46.220Z,102399.72
2023-02-12T08:19:19.755Z,102398.47
2023-02-12T08:21:54.322Z,102423.09
2023-02-12T08:24:23.920Z,102419.69
2023-02-12T08:26:52.266Z,102425.22
2023-02-12T08:29:31.313Z,102429.06
2023-02-12T08:32:04.144Z,102428.03
2023-02-12T08:34:35.818Z,102435.84
2023-02-12T08:37:06.070Z,102426.44
2023-02-12T08:39:34.550Z,102436.50
2023-02-12T08:42:02.541Z,102437.38
2023-02-12T08:44:30.683Z,102435.53
2023-02-12T08:46:58.529Z,102439.88
2023-02-12T08:49:29.641Z,102434.72
2023-02-12T08:51:59.369Z,102430.31
2023-02-12T08:54:29.728Z,102425.88
2023-02-12T08:56:59.840Z,102425.09
2023-02-12T08:59:28.183Z,102427.16
2023-02-12T09:01:56.254Z,102425.22
2023-02-12T09:04:26.550Z,102431.38
2023-02-12T09:06:55.137Z,102420.50
2023-02-12T09:09:23.416Z,102415.59
2023-02-12T09:11:51.491Z,102421.47
2023-02-12T09:14:24.304Z,102417.19
2023-02-12T09:16:54.138Z,102415.28
2023-02-12T09:19:22.453Z,102415.25
2023-02-12T09:21:56.101Z,102416.97
2023-02-12T09:24:28.279Z,102430.03
2023-02-12T09:26:57.037Z,102431.41
2023-02-12T09:29:25.605Z,102433.13
2023-02-12T09:31:53.787Z,102427.53
2023-02-12T09:34:22.151Z,102428.25
2023-02-12T09:36:50.038Z,102438.66
2023-02-12T09:39:18.120Z,102438.16
2023-02-12T09:41:55.623Z,102441.06
2023-02-12T09:44:51.193Z,102436.09
2023-02-12T09:47:34.411Z,102442.22
2023-02-12T09:50:02.562Z,102433.69
2023-02-12T09:52:31.160Z,102437.13
2023-02-12T09:55:00.122Z,102429.38
2023-02-12T09:57:33.699Z,102432.31
2023-02-12T10:00:32.248Z,102427.19
2023-02-12T10:03:05.456Z,102432.72
2023-02-12T10:05:43.540Z,102439.44
2023-02-12T10:08:29.926Z,102445.31
2023-02-12T10:11:22.067Z,102440.25
2023-02-12T10:14:04.576Z,102453.88
2023-02-12T10:16:57.585Z,102449.84
2023-02-12T10:19:43.887Z,102454.59
2023-02-12T10:22:26.408Z,102464.56
2023-02-12T10:24:56.920Z,102454.03
2023-02-12T10:27:41.761Z,102460.97
2023-02-12T10:30:50.420Z,102462.63
2023-02-12T10:33:30.284Z,102462.53
2023-02-12T10:36:22.782Z,102461.91
2023-02-12T10:38:56.269Z,102456.94
2023-02-12T10:41:27.472Z,102447.38
2023-02-12T10:43:55.919Z,102434.09
2023-02-12T10:46:23.940Z,102436.25
2023-02-12T10:48:54.530Z,102441.94
2023-02-12T10:51:34.426Z,102440.38
2023-02-12T10:54:42.265Z,102441.38
2023-02-12T10:57:18.525Z,102436.66
2023-02-12T10:59:49.321Z,102435.34
2023-02-12T11:02:25.542Z,102435.06
2023-02-12T11:04:55.925Z,102437.78
2023-02-12T11:07:25.339Z,102434.91
2023-02-12T11:09:56.173Z,102435.31
2023-02-12T11:12:38.523Z,102439.09
2023-02-12T11:15:14.166Z,102443.72
2023-02-12T11:17:55.770Z,102442.56
2023-02-12T11:20:28.370Z,102439.44
2023-02-12T11:23:01.963Z,102440.88
2023-02-12T11:25:33.650Z,102438.00
2023-02-12T11:28:17.609Z,102437.28
2023-02-12T11:30:52.155Z,102437.19
2023-02-12T11:33:23.102Z,102440.84
2023-02-12T11:36:24.222Z,102443.84
2023-02-12T11:38:54.590Z,102434.84
2023-02-12T11:41:38.108Z,102445.88
2023-02-12T11:44:12.836Z,102451.75
2023-02-12T11:46:52.414Z,102455.75
2023-02-12T11:49:32.180Z,102460.25
2023-02-12T11:52:03.278Z,102452.63
2023-02-12T11:54:39.275Z,102452.44
2023-02-12T11:57:08.122Z,102445.28
2023-02-12T11:59:47.219Z,102453.53
2023-02-12T12:02:23.740Z,102450.63
2023-02-12T12:04:56.552Z,102448.81
2023-02-12T12:07:32.376Z,102442.81
2023-02-12T12:10:08.362Z,102443.47
2023-02-12T12:12:48.660Z,102452.06
2023-02-12T12:15:47.969Z,102435.38
2023-02-12T12:19:00.729Z,102437.28
2023-02-12T12:21:31.499Z,102431.72
2023-02-12T12:24:27.101Z,102436.63
2023-02-12T12:27:40.613Z,102437.81
2023-02-12T12:30:19.960Z,102427.25
2023-02-12T12:32:51.950Z,102417.09
2023-02-12T12:35:29.790Z,102419.06
2023-02-12T12:38:39.777Z,102420.81
2023-02-12T12:41:28.413Z,102413.44
2023-02-12T12:44:05.201Z,102403.00
2023-02-12T12:47:05.492Z,102411.00
2023-02-12T12:49:46.514Z,102413.13
2023-02-12T12:52:20.831Z,102420.50
2023-02-12T12:54:57.602Z,102413.78
2023-02-12T12:57:34.745Z,102418.75
2023-02-12T13:00:28.552Z,102431.03
2023-02-12T13:03:14.941Z,102415.84
2023-02-12T13:06:04.586Z,102421.19
2023-02-12T13:08:54.803Z,102417.50
2023-02-12T13:11:42.366Z,102419.00
2023-02-12T13:14:10.594Z,102411.94
2023-02-12T13:16:50.087Z,102421.47
2023-02-12T13:19:33.538Z,102419.47
2023-02-12T13:22:11.111Z,102405.63
2023-02-12T13:24:48.075Z,102414.00
2023-02-12T13:27:25.936Z,102404.47
2023-02-12T13:30:07.539Z,102402.78
2023-02-12T13:32:43.442Z,102399.28
2023-02-12T13:35:20.581Z,102407.09
2023-02-12T13:37:53.580Z,102409.09
2023-02-12T13:40:28.147Z,102404.31
2023-02-12T13:43:11.776Z,102406.84
2023-02-12T13:45:51.586Z,102399.06
2023-02-12T13:48:33.515Z,102410.41
2023-02-12T13:51:10.758Z,102395.56
2023-02-12T13:53:55.177Z,102396.16
2023-02-12T13:56:34.315Z,102406.66
2023-02-12T13:59:02.204Z,102399.94
2023-02-12T14:01:47.546Z,102403.53
2023-02-12T14:04:21.507Z,102407.47
2023-02-12T14:07:13.016Z,102412.81
2023-02-12T14:10:00.850Z,102412.31
2023-02-12T14:12:32.227Z,102410.97
2023-02-12T14:15:18.403Z,102410.78
2023-02-12T14:18:37.889Z,102416.00
2023-02-12T14:21:12.280Z,102413.56
2023-02-12T14:23:46.145Z,102415.34
2023-02-12T14:26:17.221Z,102428.59
2023-02-12T14:28:54.955Z,102421.63
2023-02-12T14:31:34.837Z,102418.50
2023-02-12T14:34:05.555Z,102430.50
2023-02-12T14:36:33.723Z,102429.50
2023-02-12T14:39:19.531Z,102420.88
2023-02-12T14:41:50.329Z,102430.28
2023-02-12T14:44:18.164Z,102437.34
2023-02-12T14:46:52.114Z,102434.16
2023-02-12T14:49:39.897Z,102426.38
2023-02-12T14:52:27.406Z,102442.53
2023-02-12T14:55:02.993Z,102443.03
2023-02-12T14:57:37.885Z,102452.50
2023-02-12T15:00:38.645Z,102443.06
2023-02-12T15:03:52.629Z,102452.78
2023-02-12T15:06:27.970Z,102463.44
2023-02-12T15:09:03.149Z,102450.91
2023-02-12T15:11:33.909Z,102461.53
2023-02-12T15:14:27.273Z,102456.38
2023-02-12T15:17:10.289Z,102462.28
2023-02-12T15:19:43.767Z,102456.41
2023-02-12T15:22:26.497Z,102439.13
2023-02-12T15:24:54.788Z,102453.50
2023-02-12T15:27:22.821Z,102460.38
2023-02-12T15:29:54.643Z,102452.16
2023-02-12T15:32:27.464Z,102449.94
2023-02-12T15:34:56.813Z,102459.41
2023-02-12T15:37:31.719Z,102458.22
2023-02-12T15:40:04.007Z,102468.19
2023-02-12T15:42:35.536Z,102478.19
2023-02-12T15:45:12.755Z,102473.41
2023-02-12T15:47:41.954Z,102472.38
2023-02-12T15:50:16.730Z,102472.75
2023-02-12T15:52:47.882Z,102468.56
2023-02-12T15:55:28.859Z,102479.66
2023-02-12T15:58:00.547Z,102478.59
2023-02-12T16:00:48.080Z,102481.88
2023-02-12T16:03:27.222Z,102485.84
2023-02-12T16:06:02.230Z,102480.50
2023-02-12T16:08:33.872Z,102484.22
2023-02-12T16:11:13.926Z,102481.44
2023-02-12T16:13:48.690Z,102484.25
2023-02-12T16:16:23.678Z,102486.41
2023-02-12T16:19:22.223Z,102494.00
2023-02-12T16:22:12.912Z,102500.50
2023-02-12T16:24:47.904Z,102496.00
2023-02-12T16:27:16.177Z,102500.38
2023-02-12T16:29:52.937Z,102499.19
2023-02-12T16:32:39.643Z,102498.97
2023-02-12T16:35:25.711Z,102503.16
2023-02-12T16:38:00.604Z,102503.19
2023-02-12T16:40:32.604Z,102507.56
2023-02-12T16:43:23.036Z,102519.72
2023-02-12T16:45:51.793Z,102518.09
2023-02-12T16:48:25.335Z,102521.72
2023-02-12T16:50:58.811Z,102524.38
2023-02-12T16:53:34.585Z,102530.34
2023-02-12T16:56:04.820Z,102533.09
2023-02-12T16:58:33.293Z,102537.63
2023-02-12T17:01:04.645Z,102543.34
2023-02-12T17:03:34.799Z,102551.09
2023-02-12T17:06:02.774Z,102550.75
2023-02-12T17:08:31.114Z,102552.88
2023-02-12T17:10:59.023Z,102556.09
2023-02-12T17:13:27.244Z,102561.50
2023-02-12T17:15:58.359Z,102561.63
2023-02-12T17:18:27.535Z,102574.47
2023-02-12T17:20:58.862Z,102573.41
2023-02-12T17:23:27.533Z,102572.44
2023-02-12T17:25:55.888Z,102570.00
2023-02-12T17:28:25.398Z,102573.66
2023-02-12T17:30:54.157Z,102580.63
2023-02-12T17:33:22.895Z,102581.72
2023-02-12T17:35:50.899Z,102584.13
2023-02-12T17:38:19.236Z,102588.44
2023-02-12T17:40:47.215Z,102588.28
2023-02-12T17:43:15.412Z,102588.00
2023-02-12T17:45:44.270Z,102595.47
2023-02-12T17:48:14.082Z,102596.94
2023-02-12T17:50:42.597Z,102603.56
2023-02-12T17:53:11.758Z,102608.66
2023-02-12T17:55:41.175Z,102611.31
2023-02-12T17:58:09.606Z,102614.03
2023-02-12T18:00:37.550Z,102618.81
2023-02-12T18:03:05.835Z,102615.16
2023-02-12T18:05:33.973Z,102619.97
2023-02-12T18:08:03.914Z,102614.81
2023-02-12T18:10:31.862Z,102623.72
2023-02-12T18:13:00.273Z,102613.25
2023-02-12T18:15:28.202Z,102613.31
2023-02-12T18:17:56.476Z,102607.69
2023-02-12T18:20:24.412Z,102609.38
2023-02-12T18:22:52.708Z,102614.44
2023-02-12T18:25:20.662Z,102614.72
2023-02-12T18:27:48.968Z,102615.00
2023-02-12T18:30:17.047Z,102620.41
2023-02-12T18:32:45.342Z,102621.25
2023-02-12T18:35:14.023Z,102615.09
2023-02-12T18:37:43.441Z,102625.22
2023-02-12T18:40:12.364Z,102622.88
2023-02-12T18:42:40.744Z,102631.44
2023-02-12T18:45:09.171Z,102630.41
2023-02-12T18:47:37.671Z,102639.53
2023-02-12T18:50:06.461Z,102641.38
2023-02-12T18:52:34.856Z,102636.84
2023-02-12T18:55:02.761Z,102643.53
2023-02-12T18:57:31.302Z,102646.47
2023-02-12T18:59:59.171Z,102644.06
2023-02-12T19:02:27.717Z,102645.44
2023-02-12T19:04:55.568Z,102649.19
2023-02-12T19:07:23.724Z,102651.31
2023-02-12T19:09:53.183Z,102654.53
2023-02-12T19:12:21.431Z,102655.06
2023-02-12T19:14:49.282Z,102659.91
2023-02-12T19:17:17.471Z,102659.63
2023-02-12T19:19:45.234Z,102663.94
2023-02-12T19:22:13.417Z,102665.19
2023-02-12T19:24:46.989Z,102660.41
2023-02-12T19:27:15.677Z,102661.47
2023-02-12T19:29:43.817Z,102666.03
2023-02-12T19:32:11.917Z,102666.28
2023-02-12T19:34:39.938Z,102668.69
2023-02-12T19:37:10.993Z,102668.69
2023-02-12T19:39:41.680Z,102667.56
2023-02-12T19:42:11.072Z,102667.84
2023-02-12T19:44:41.151Z,102675.59
2023-02-12T19:47:09.539Z,102680.69
2023-02-12T19:49:38.330Z,102683.38
2023-02-12T19:52:06.482Z,102681.50
2023-02-12T19:54:34.902Z,102687.09
2023-02-12T19:57:08.762Z,102688.41
2023-02-12T19:59:37.105Z,102691.91
2023-02-12T20:02:05.285Z,102697.25
2023-02-12T20:04:34.065Z,102702.91
2023-02-12T20:07:02.281Z,102707.94
2023-02-12T20:09:30.295Z,102703.16
2023-02-12T20:11:59.827Z,102701.78
2023-02-12T20:14:28.262Z,102710.34
2023-02-12T20:16:58.745Z,102706.84
2023-02-12T20:19:32.354Z,102708.13
2023-02-12T20:22:02.016Z,102710.53
2023-02-12T20:24:32.343Z,102713.25
2023-02-12T20:27:03.429Z,102722.19
2023-02-12T20:29:31.655Z,102712.59
2023-02-12T20:32:00.150Z,102720.59
2023-02-12T20:34:28.285Z,102723.31
2023-02-12T20:36:56.616Z,102723.75
2023-02-12T20:39:24.911Z,102727.69
2023-02-12T20:41:53.167Z,102725.44
2023-02-12T20:44:22.420Z,102731.38
2023-02-12T20:46:56.392Z,102732.47
2023-02-12T20:49:25.603Z,102732.97
2023-02-12T20:51:54.245Z,102731.28
2023-02-12T20:54:22.477Z,102738.34
2023-02-12T20:56:51.178Z,102743.34
2023-02-12T20:59:19.275Z,102733.72
2023-02-12T21:01:48.441Z,102732.84
2023-02-12T21:04:19.538Z,102734.25
2023-02-12T21:06:48.763Z,102743.34
2023-02-12T21:09:17.377Z,102743.94
2023-02-12T21:11:46.031Z,102751.00
2023-02-12T21:14:24.196Z,102748.66
2023-02-12T21:16:55.457Z,102751.88
2023-02-12T21:19:24.452Z,102746.91
2023-02-12T21:21:53.074Z,102752.31
2023-02-12T21:24:25.774Z,102752.34
2023-02-12T21:26:54.950Z,102750.69
2023-02-12T21:29:23.563Z,102757.59
2023-02-12T21:31:51.879Z,102759.69
2023-02-12T21:34:22.263Z,102762.91
2023-02-12T21:36:53.210Z,102761.19
2023-02-12T21:39:27.573Z,102761.47
2023-02-12T21:42:00.390Z,102764.78
2023-02-12T21:44:29.654Z,102772.75
2023-02-12T21:46:58.810Z,102774.00
2023-02-12T21:49:28.264Z,102764.84
2023-02-12T21:52:06.074Z,102769.63
2023-02-12T21:54:34.164Z,102772.53
2023-02-12T21:57:02.176Z,102777.69
2023-02-12T21:59:32.092Z,102772.34
2023-02-12T22:02:00.916Z,102776.06
2023-02-12T22:04:28.777Z,102778.25
2023-02-12T22:06:58.207Z,102779.41
2023-02-12T22:09:26.146Z,102787.28
2023-02-12T22:11:54.494Z,102789.22
2023-02-12T22:14:22.999Z,102781.88
2023-02-12T22:16:51.319Z,102789.50
2023-02-12T22:19:19.161Z,102791.47
2023-02-12T22:21:51.726Z,102784.69
2023-02-12T22:24:20.827Z,102792.63
2023-02-12T22:26:49.127Z,102790.19
2023-02-12T22:29:17.248Z,102798.28
2023-02-12T22:31:46.772Z,102790.41
2023-02-12T22:34:17.694Z,102788.63
2023-02-12T22:36:46.473Z,102792.19
2023-02-12T22:39:15.003Z,102790.41
2023-02-12T22:41:43.342Z,102804.88
2023-02-12T22:44:12.858Z,102806.34
2023-02-12T22:46:43.274Z,102813.84
2023-02-12T22:49:11.492Z,102812.25
2023-02-12T22:51:39.969Z,102817.59
2023-02-12T22:54:12.349Z,102818.50
2023-02-12T22:56:41.240Z,102817.00
2023-02-12T22:59:11.559Z,102824.84
2023-02-12T23:01:40.073Z,102827.31
2023-02-12T23:04:08.367Z,102825.72
2023-02-12T23:06:36.831Z,102827.16
2023-02-12T23:09:05.357Z,102837.38
2023-02-12T23:11:34.043Z,102830.06
2023-02-12T23:14:02.009Z,102830.03
2023-02-12T23:16:30.327Z,102831.25
2023-02-12T23:19:00.270Z,102830.13
2023-02-12T23:21:30.988Z,102835.84
2023-02-12T23:23:59.371Z,102833.91
2023-02-12T23:26:28.976Z,102842.06
2023-02-12T23:28:57.501Z,102832.94
2023-02-12T23:31:26.186Z,102832.16
2023-02-12T23:33:54.239Z,102843.47
2023-02-12T23:36:22.544Z,102852.44
2023-02-12T23:38:50.652Z,102840.13
2023-02-12T23:41:19.250Z,102840.81
2023-02-12T23:43:47.181Z,102836.25
2023-02-12T23:46:15.605Z,102842.53
2023-02-12T23:48:44.804Z,102848.66
2023-02-12T23:51:13.091Z,102832.88
2023-02-12T23:53:41.022Z,102835.09
2023-02-12T23:56:09.275Z,102836.00
2023-02-12T23:58:37.132Z,102838.22
